sensor_id;sensor_type;location;lat;lon;timestamp;P1;durP1;ratioP1;P2;durP2;ratioP2
1436;SDS011;712;51.026;13.792;2024-02-26T00:01:58;27.20;;;13.50;;
1436;SDS011;712;51.026;13.792;2024-02-26T00:04:24;26.77;;;13.30;;
1436;SDS011;712;51.026;13.792;2024-02-26T00:06:49;24.10;;;13.20;;
1436;SDS011;712;51.026;13.792;2024-02-26T00:09:16;24.23;;;12.52;;
1436;SDS011;712;51.026;13.792;2024-02-26T00:11:41;23.83;;;11.82;;
1436;SDS011;712;51.026;13.792;2024-02-26T00:14:06;26.08;;;12.57;;
1436;SDS011;712;51.026;13.792;2024-02-26T00:16:31;23.73;;;11.57;;
1436;SDS011;712;51.026;13.792;2024-02-26T00:18:56;27.67;;;12.75;;
1436;SDS011;712;51.026;13.792;2024-02-26T00:21:22;24.88;;;11.82;;
1436;SDS011;712;51.026;13.792;2024-02-26T00:23:48;24.75;;;12.80;;
1436;SDS011;712;51.026;13.792;2024-02-26T00:26:14;23.23;;;12.73;;
1436;SDS011;712;51.026;13.792;2024-02-26T00:28:40;24.42;;;12.95;;
1436;SDS011;712;51.026;13.792;2024-02-26T00:31:05;22.80;;;12.65;;
1436;SDS011;712;51.026;13.792;2024-02-26T00:33:30;22.90;;;12.50;;
1436;SDS011;712;51.026;13.792;2024-02-26T00:35:55;23.07;;;12.70;;
1436;SDS011;712;51.026;13.792;2024-02-26T00:38:20;23.50;;;11.80;;
1436;SDS011;712;51.026;13.792;2024-02-26T00:40:46;24.33;;;13.50;;
1436;SDS011;712;51.026;13.792;2024-02-26T00:43:11;26.92;;;13.48;;
1436;SDS011;712;51.026;13.792;2024-02-26T00:45:37;23.70;;;12.50;;
1436;SDS011;712;51.026;13.792;2024-02-26T00:48:02;23.33;;;12.57;;
1436;SDS011;712;51.026;13.792;2024-02-26T00:50:30;25.33;;;11.80;;
1436;SDS011;712;51.026;13.792;2024-02-26T00:52:55;24.58;;;12.55;;
1436;SDS011;712;51.026;13.792;2024-02-26T00:55:20;23.83;;;11.63;;
1436;SDS011;712;51.026;13.792;2024-02-26T00:57:45;23.13;;;12.50;;
1436;SDS011;712;51.026;13.792;2024-02-26T01:00:11;22.67;;;12.17;;
1436;SDS011;712;51.026;13.792;2024-02-26T01:02:38;26.65;;;12.23;;
1436;SDS011;712;51.026;13.792;2024-02-26T01:07:28;24.85;;;11.88;;
1436;SDS011;712;51.026;13.792;2024-02-26T01:09:53;21.90;;;12.20;;
1436;SDS011;712;51.026;13.792;2024-02-26T01:12:19;22.13;;;11.10;;
1436;SDS011;712;51.026;13.792;2024-02-26T01:14:44;25.63;;;12.70;;
1436;SDS011;712;51.026;13.792;2024-02-26T01:17:09;25.58;;;13.75;;
1436;SDS011;712;51.026;13.792;2024-02-26T01:19:34;25.67;;;12.90;;
1436;SDS011;712;51.026;13.792;2024-02-26T01:21:59;27.33;;;14.80;;
1436;SDS011;712;51.026;13.792;2024-02-26T01:24:25;26.23;;;12.50;;
1436;SDS011;712;51.026;13.792;2024-02-26T01:26:52;25.95;;;13.93;;
1436;SDS011;712;51.026;13.792;2024-02-26T01:29:17;24.43;;;12.87;;
1436;SDS011;712;51.026;13.792;2024-02-26T01:31:42;28.02;;;14.60;;
1436;SDS011;712;51.026;13.792;2024-02-26T01:34:09;26.55;;;12.18;;
1436;SDS011;712;51.026;13.792;2024-02-26T01:36:34;22.58;;;12.00;;
1436;SDS011;712;51.026;13.792;2024-02-26T01:38:59;23.30;;;12.18;;
1436;SDS011;712;51.026;13.792;2024-02-26T01:41:25;23.77;;;11.68;;
1436;SDS011;712;51.026;13.792;2024-02-26T01:43:50;24.13;;;13.10;;
1436;SDS011;712;51.026;13.792;2024-02-26T01:46:15;27.02;;;12.25;;
1436;SDS011;712;51.026;13.792;2024-02-26T01:48:41;23.60;;;12.43;;
1436;SDS011;712;51.026;13.792;2024-02-26T01:51:07;23.17;;;11.85;;
1436;SDS011;712;51.026;13.792;2024-02-26T01:53:32;26.10;;;12.55;;
1436;SDS011;712;51.026;13.792;2024-02-26T01:55:58;26.50;;;13.20;;
1436;SDS011;712;51.026;13.792;2024-02-26T01:58:23;25.77;;;11.65;;
1436;SDS011;712;51.026;13.792;2024-02-26T02:00:48;22.85;;;11.82;;
1436;SDS011;712;51.026;13.792;2024-02-26T02:03:14;24.50;;;12.68;;
1436;SDS011;712;51.026;13.792;2024-02-26T02:05:39;24.43;;;11.90;;
1436;SDS011;712;51.026;13.792;2024-02-26T02:08:08;25.20;;;12.07;;
1436;SDS011;712;51.026;13.792;2024-02-26T02:10:35;23.88;;;12.85;;
1436;SDS011;712;51.026;13.792;2024-02-26T02:13:00;24.23;;;12.53;;
1436;SDS011;712;51.026;13.792;2024-02-26T02:15:25;22.63;;;11.32;;
1436;SDS011;712;51.026;13.792;2024-02-26T02:17:50;26.57;;;11.67;;
1436;SDS011;712;51.026;13.792;2024-02-26T02:20:16;23.17;;;11.30;;
1436;SDS011;712;51.026;13.792;2024-02-26T02:22:42;22.30;;;12.35;;
1436;SDS011;712;51.026;13.792;2024-02-26T02:25:08;25.70;;;12.00;;
1436;SDS011;712;51.026;13.792;2024-02-26T02:27:33;25.80;;;12.47;;
1436;SDS011;712;51.026;13.792;2024-02-26T02:29:58;26.83;;;12.43;;
1436;SDS011;712;51.026;13.792;2024-02-26T02:32:24;24.17;;;11.67;;
1436;SDS011;712;51.026;13.792;2024-02-26T02:34:49;23.77;;;12.88;;
1436;SDS011;712;51.026;13.792;2024-02-26T02:37:15;26.42;;;13.20;;
1436;SDS011;712;51.026;13.792;2024-02-26T02:39:40;25.23;;;12.48;;
1436;SDS011;712;51.026;13.792;2024-02-26T02:42:08;23.02;;;11.80;;
1436;SDS011;712;51.026;13.792;2024-02-26T02:44:33;23.40;;;11.95;;
1436;SDS011;712;51.026;13.792;2024-02-26T02:46:58;21.88;;;11.43;;
1436;SDS011;712;51.026;13.792;2024-02-26T02:49:23;26.73;;;12.10;;
1436;SDS011;712;51.026;13.792;2024-02-26T02:51:48;22.70;;;11.70;;
1436;SDS011;712;51.026;13.792;2024-02-26T02:54:13;22.98;;;10.77;;
1436;SDS011;712;51.026;13.792;2024-02-26T02:56:39;25.13;;;12.35;;
1436;SDS011;712;51.026;13.792;2024-02-26T02:59:04;24.67;;;12.48;;
1436;SDS011;712;51.026;13.792;2024-02-26T03:01:29;23.03;;;10.53;;
1436;SDS011;712;51.026;13.792;2024-02-26T03:03:54;23.67;;;11.00;;
1436;SDS011;712;51.026;13.792;2024-02-26T03:06:19;25.05;;;12.43;;
1436;SDS011;712;51.026;13.792;2024-02-26T03:08:46;22.83;;;11.75;;
1436;SDS011;712;51.026;13.792;2024-02-26T03:11:14;22.83;;;11.60;;
1436;SDS011;712;51.026;13.792;2024-02-26T03:13:40;22.33;;;11.40;;
1436;SDS011;712;51.026;13.792;2024-02-26T03:16:05;25.73;;;12.37;;
1436;SDS011;712;51.026;13.792;2024-02-26T03:18:30;23.65;;;11.68;;
1436;SDS011;712;51.026;13.792;2024-02-26T03:20:55;22.98;;;11.50;;
1436;SDS011;712;51.026;13.792;2024-02-26T03:23:21;24.42;;;11.75;;
1436;SDS011;712;51.026;13.792;2024-02-26T03:25:47;23.45;;;11.50;;
1436;SDS011;712;51.026;13.792;2024-02-26T03:28:14;22.33;;;11.80;;
1436;SDS011;712;51.026;13.792;2024-02-26T03:30:39;22.30;;;11.15;;
1436;SDS011;712;51.026;13.792;2024-02-26T03:33:04;22.65;;;11.18;;
1436;SDS011;712;51.026;13.792;2024-02-26T03:35:29;21.07;;;10.53;;
1436;SDS011;712;51.026;13.792;2024-02-26T03:37:55;21.77;;;11.25;;
1436;SDS011;712;51.026;13.792;2024-02-26T03:40:20;21.70;;;11.60;;
1436;SDS011;712;51.026;13.792;2024-02-26T03:42:45;21.20;;;11.90;;
1436;SDS011;712;51.026;13.792;2024-02-26T03:45:10;23.07;;;12.00;;
1436;SDS011;712;51.026;13.792;2024-02-26T03:47:37;23.77;;;11.60;;
1436;SDS011;712;51.026;13.792;2024-02-26T03:50:02;25.02;;;11.75;;
1436;SDS011;712;51.026;13.792;2024-02-26T03:52:29;21.50;;;10.98;;
1436;SDS011;712;51.026;13.792;2024-02-26T03:54:54;23.77;;;11.88;;
1436;SDS011;712;51.026;13.792;2024-02-26T03:57:19;24.05;;;11.52;;
1436;SDS011;712;51.026;13.792;2024-02-26T03:59:44;24.33;;;11.52;;
1436;SDS011;712;51.026;13.792;2024-02-26T04:02:09;27.65;;;12.07;;
1436;SDS011;712;51.026;13.792;2024-02-26T04:04:34;19.97;;;9.87;;
1436;SDS011;712;51.026;13.792;2024-02-26T04:06:59;22.57;;;10.50;;
1436;SDS011;712;51.026;13.792;2024-02-26T04:09:25;22.53;;;11.20;;
1436;SDS011;712;51.026;13.792;2024-02-26T04:11:50;22.17;;;10.27;;
1436;SDS011;712;51.026;13.792;2024-02-26T04:14:15;21.75;;;11.43;;
1436;SDS011;712;51.026;13.792;2024-02-26T04:16:40;20.10;;;10.37;;
1436;SDS011;712;51.026;13.792;2024-02-26T04:19:05;23.33;;;12.00;;
1436;SDS011;712;51.026;13.792;2024-02-26T04:21:31;19.60;;;10.13;;
1436;SDS011;712;51.026;13.792;2024-02-26T04:23:56;20.07;;;10.70;;
1436;SDS011;712;51.026;13.792;2024-02-26T04:26:25;22.38;;;10.27;;
1436;SDS011;712;51.026;13.792;2024-02-26T04:28:50;20.77;;;10.40;;
1436;SDS011;712;51.026;13.792;2024-02-26T04:31:15;21.83;;;10.68;;
1436;SDS011;712;51.026;13.792;2024-02-26T04:33:41;23.20;;;11.45;;
1436;SDS011;712;51.026;13.792;2024-02-26T04:36:11;24.27;;;11.20;;
1436;SDS011;712;51.026;13.792;2024-02-26T04:38:36;20.58;;;10.45;;
1436;SDS011;712;51.026;13.792;2024-02-26T04:41:02;23.05;;;10.88;;
1436;SDS011;712;51.026;13.792;2024-02-26T04:43:27;24.20;;;10.82;;
1436;SDS011;712;51.026;13.792;2024-02-26T04:45:52;22.35;;;11.30;;
1436;SDS011;712;51.026;13.792;2024-02-26T04:50:44;22.60;;;10.50;;
1436;SDS011;712;51.026;13.792;2024-02-26T04:53:10;23.48;;;10.77;;
1436;SDS011;712;51.026;13.792;2024-02-26T04:55:35;23.38;;;11.50;;
1436;SDS011;712;51.026;13.792;2024-02-26T04:58:00;27.10;;;11.82;;
1436;SDS011;712;51.026;13.792;2024-02-26T05:00:25;23.42;;;10.95;;
1436;SDS011;712;51.026;13.792;2024-02-26T05:02:50;22.88;;;9.77;;
1436;SDS011;712;51.026;13.792;2024-02-26T05:05:15;23.55;;;9.93;;
1436;SDS011;712;51.026;13.792;2024-02-26T05:07:41;25.30;;;11.40;;
1436;SDS011;712;51.026;13.792;2024-02-26T05:10:07;24.88;;;10.82;;
1436;SDS011;712;51.026;13.792;2024-02-26T05:12:32;22.20;;;9.65;;
1436;SDS011;712;51.026;13.792;2024-02-26T05:15:00;19.55;;;10.05;;
1436;SDS011;712;51.026;13.792;2024-02-26T05:17:25;22.52;;;11.15;;
1436;SDS011;712;51.026;13.792;2024-02-26T05:19:50;19.58;;;10.13;;
1436;SDS011;712;51.026;13.792;2024-02-26T05:22:15;23.60;;;10.43;;
1436;SDS011;712;51.026;13.792;2024-02-26T05:24:41;23.83;;;10.77;;
1436;SDS011;712;51.026;13.792;2024-02-26T05:27:06;23.48;;;10.45;;
1436;SDS011;712;51.026;13.792;2024-02-26T05:29:31;20.65;;;10.23;;
1436;SDS011;712;51.026;13.792;2024-02-26T05:31:57;21.88;;;10.38;;
1436;SDS011;712;51.026;13.792;2024-02-26T05:34:22;20.30;;;10.27;;
1436;SDS011;712;51.026;13.792;2024-02-26T05:36:47;21.30;;;10.30;;
1436;SDS011;712;51.026;13.792;2024-02-26T05:39:12;20.92;;;9.75;;
1436;SDS011;712;51.026;13.792;2024-02-26T05:41:37;20.90;;;10.55;;
1436;SDS011;712;51.026;13.792;2024-02-26T05:44:03;21.67;;;9.87;;
1436;SDS011;712;51.026;13.792;2024-02-26T05:46:28;17.95;;;9.63;;
1436;SDS011;712;51.026;13.792;2024-02-26T05:48:53;19.97;;;10.07;;
1436;SDS011;712;51.026;13.792;2024-02-26T05:51:19;21.27;;;10.73;;
1436;SDS011;712;51.026;13.792;2024-02-26T05:53:44;20.73;;;9.90;;
1436;SDS011;712;51.026;13.792;2024-02-26T05:56:09;19.27;;;9.63;;
1436;SDS011;712;51.026;13.792;2024-02-26T05:58:34;23.60;;;11.10;;
1436;SDS011;712;51.026;13.792;2024-02-26T06:00:59;20.88;;;9.95;;
1436;SDS011;712;51.026;13.792;2024-02-26T06:03:25;20.35;;;9.48;;
1436;SDS011;712;51.026;13.792;2024-02-26T06:05:50;21.40;;;10.63;;
1436;SDS011;712;51.026;13.792;2024-02-26T06:08:15;21.15;;;10.25;;
1436;SDS011;712;51.026;13.792;2024-02-26T06:10:40;20.65;;;9.98;;
1436;SDS011;712;51.026;13.792;2024-02-26T06:13:05;19.77;;;8.70;;
1436;SDS011;712;51.026;13.792;2024-02-26T06:15:31;19.37;;;9.43;;
1436;SDS011;712;51.026;13.792;2024-02-26T06:17:56;19.05;;;9.52;;
1436;SDS011;712;51.026;13.792;2024-02-26T06:20:21;22.35;;;9.43;;
1436;SDS011;712;51.026;13.792;2024-02-26T06:22:46;18.27;;;8.82;;
1436;SDS011;712;51.026;13.792;2024-02-26T06:25:11;18.95;;;9.35;;
1436;SDS011;712;51.026;13.792;2024-02-26T06:27:36;20.47;;;9.53;;
1436;SDS011;712;51.026;13.792;2024-02-26T06:30:02;18.52;;;9.85;;
1436;SDS011;712;51.026;13.792;2024-02-26T06:32:27;21.83;;;10.43;;
1436;SDS011;712;51.026;13.792;2024-02-26T06:34:54;17.38;;;9.57;;
1436;SDS011;712;51.026;13.792;2024-02-26T06:37:19;19.67;;;8.57;;
1436;SDS011;712;51.026;13.792;2024-02-26T06:39:44;20.48;;;9.25;;
1436;SDS011;712;51.026;13.792;2024-02-26T06:42:09;19.80;;;9.68;;
1436;SDS011;712;51.026;13.792;2024-02-26T06:44:34;17.03;;;9.07;;
1436;SDS011;712;51.026;13.792;2024-02-26T06:46:59;16.80;;;8.82;;
1436;SDS011;712;51.026;13.792;2024-02-26T06:49:25;18.00;;;9.57;;
1436;SDS011;712;51.026;13.792;2024-02-26T06:51:50;19.20;;;9.07;;
1436;SDS011;712;51.026;13.792;2024-02-26T06:54:15;17.73;;;8.60;;
1436;SDS011;712;51.026;13.792;2024-02-26T06:56:40;15.33;;;7.97;;
1436;SDS011;712;51.026;13.792;2024-02-26T06:59:05;16.77;;;8.95;;
1436;SDS011;712;51.026;13.792;2024-02-26T07:01:31;17.23;;;8.40;;
1436;SDS011;712;51.026;13.792;2024-02-26T07:03:56;17.90;;;8.07;;
1436;SDS011;712;51.026;13.792;2024-02-26T07:06:21;16.92;;;8.25;;
1436;SDS011;712;51.026;13.792;2024-02-26T07:08:46;16.73;;;8.07;;
1436;SDS011;712;51.026;13.792;2024-02-26T07:11:12;16.92;;;8.10;;
1436;SDS011;712;51.026;13.792;2024-02-26T07:13:37;17.10;;;8.23;;
1436;SDS011;712;51.026;13.792;2024-02-26T07:16:02;17.15;;;8.65;;
1436;SDS011;712;51.026;13.792;2024-02-26T07:18:27;16.52;;;8.27;;
1436;SDS011;712;51.026;13.792;2024-02-26T07:20:53;15.73;;;7.47;;
1436;SDS011;712;51.026;13.792;2024-02-26T07:23:18;14.27;;;7.60;;
1436;SDS011;712;51.026;13.792;2024-02-26T07:25:43;17.80;;;7.67;;
1436;SDS011;712;51.026;13.792;2024-02-26T07:28:09;15.30;;;7.63;;
1436;SDS011;712;51.026;13.792;2024-02-26T07:30:34;19.77;;;8.20;;
1436;SDS011;712;51.026;13.792;2024-02-26T07:32:59;17.17;;;8.33;;
1436;SDS011;712;51.026;13.792;2024-02-26T07:35:24;18.75;;;8.95;;
1436;SDS011;712;51.026;13.792;2024-02-26T07:37:50;18.65;;;8.32;;
1436;SDS011;712;51.026;13.792;2024-02-26T07:40:15;16.93;;;8.17;;
1436;SDS011;712;51.026;13.792;2024-02-26T07:42:40;18.50;;;8.10;;
1436;SDS011;712;51.026;13.792;2024-02-26T07:45:06;16.83;;;7.60;;
1436;SDS011;712;51.026;13.792;2024-02-26T07:47:31;15.52;;;8.00;;
1436;SDS011;712;51.026;13.792;2024-02-26T07:49:56;15.23;;;7.70;;
1436;SDS011;712;51.026;13.792;2024-02-26T07:52:22;17.17;;;8.05;;
1436;SDS011;712;51.026;13.792;2024-02-26T07:54:47;15.13;;;7.43;;
1436;SDS011;712;51.026;13.792;2024-02-26T07:57:13;15.73;;;6.87;;
1436;SDS011;712;51.026;13.792;2024-02-26T07:59:41;16.48;;;7.63;;
1436;SDS011;712;51.026;13.792;2024-02-26T08:02:06;14.07;;;7.15;;
1436;SDS011;712;51.026;13.792;2024-02-26T08:04:31;16.53;;;7.07;;
1436;SDS011;712;51.026;13.792;2024-02-26T08:06:56;12.60;;;6.73;;
1436;SDS011;712;51.026;13.792;2024-02-26T08:09:22;15.32;;;6.85;;
1436;SDS011;712;51.026;13.792;2024-02-26T08:11:47;15.68;;;6.70;;
1436;SDS011;712;51.026;13.792;2024-02-26T08:14:12;14.80;;;6.67;;
1436;SDS011;712;51.026;13.792;2024-02-26T08:16:37;12.80;;;6.78;;
1436;SDS011;712;51.026;13.792;2024-02-26T08:19:02;14.07;;;6.93;;
1436;SDS011;712;51.026;13.792;2024-02-26T08:21:28;13.63;;;5.95;;
1436;SDS011;712;51.026;13.792;2024-02-26T08:23:53;12.73;;;6.00;;
1436;SDS011;712;51.026;13.792;2024-02-26T08:26:18;12.70;;;5.77;;
1436;SDS011;712;51.026;13.792;2024-02-26T08:28:45;15.07;;;7.05;;
1436;SDS011;712;51.026;13.792;2024-02-26T08:31:12;14.30;;;6.47;;
1436;SDS011;712;51.026;13.792;2024-02-26T08:33:38;15.23;;;6.32;;
1436;SDS011;712;51.026;13.792;2024-02-26T08:36:04;13.73;;;6.35;;
1436;SDS011;712;51.026;13.792;2024-02-26T08:38:29;12.10;;;6.53;;
1436;SDS011;712;51.026;13.792;2024-02-26T08:40:54;14.90;;;6.00;;
1436;SDS011;712;51.026;13.792;2024-02-26T08:43:19;12.95;;;6.82;;
1436;SDS011;712;51.026;13.792;2024-02-26T08:45:44;12.97;;;6.50;;
1436;SDS011;712;51.026;13.792;2024-02-26T08:48:10;13.60;;;6.63;;
1436;SDS011;712;51.026;13.792;2024-02-26T08:50:35;13.63;;;6.60;;
1436;SDS011;712;51.026;13.792;2024-02-26T08:53:00;15.63;;;7.25;;
1436;SDS011;712;51.026;13.792;2024-02-26T08:55:26;12.20;;;6.28;;
1436;SDS011;712;51.026;13.792;2024-02-26T08:57:51;16.27;;;6.80;;
1436;SDS011;712;51.026;13.792;2024-02-26T09:00:16;14.25;;;6.00;;
1436;SDS011;712;51.026;13.792;2024-02-26T09:02:42;14.88;;;6.60;;
1436;SDS011;712;51.026;13.792;2024-02-26T09:05:09;15.38;;;6.85;;
1436;SDS011;712;51.026;13.792;2024-02-26T09:07:35;15.82;;;6.75;;
1436;SDS011;712;51.026;13.792;2024-02-26T09:10:00;12.25;;;6.82;;
1436;SDS011;712;51.026;13.792;2024-02-26T09:12:25;15.43;;;7.57;;
1436;SDS011;712;51.026;13.792;2024-02-26T09:14:50;14.20;;;7.28;;
1436;SDS011;712;51.026;13.792;2024-02-26T09:17:15;13.10;;;7.00;;
1436;SDS011;712;51.026;13.792;2024-02-26T09:19:40;13.68;;;6.47;;
1436;SDS011;712;51.026;13.792;2024-02-26T09:22:07;13.68;;;7.05;;
1436;SDS011;712;51.026;13.792;2024-02-26T09:24:32;12.80;;;7.30;;
1436;SDS011;712;51.026;13.792;2024-02-26T09:26:57;14.00;;;6.77;;
1436;SDS011;712;51.026;13.792;2024-02-26T09:29:22;15.35;;;6.72;;
1436;SDS011;712;51.026;13.792;2024-02-26T09:31:48;13.40;;;6.93;;
1436;SDS011;712;51.026;13.792;2024-02-26T09:34:13;12.97;;;6.60;;
1436;SDS011;712;51.026;13.792;2024-02-26T09:36:38;12.80;;;5.72;;
1436;SDS011;712;51.026;13.792;2024-02-26T09:39:03;14.07;;;6.17;;
1436;SDS011;712;51.026;13.792;2024-02-26T09:41:29;13.15;;;6.18;;
1436;SDS011;712;51.026;13.792;2024-02-26T09:43:56;13.02;;;6.60;;
1436;SDS011;712;51.026;13.792;2024-02-26T09:46:21;13.55;;;6.47;;
1436;SDS011;712;51.026;13.792;2024-02-26T09:48:46;13.13;;;6.43;;
1436;SDS011;712;51.026;13.792;2024-02-26T09:51:12;16.27;;;6.30;;
1436;SDS011;712;51.026;13.792;2024-02-26T09:53:38;14.20;;;6.43;;
1436;SDS011;712;51.026;13.792;2024-02-26T09:56:05;14.35;;;6.70;;
1436;SDS011;712;51.026;13.792;2024-02-26T09:58:31;12.02;;;5.93;;
1436;SDS011;712;51.026;13.792;2024-02-26T10:00:57;17.65;;;6.30;;
1436;SDS011;712;51.026;13.792;2024-02-26T10:03:25;13.35;;;6.15;;
1436;SDS011;712;51.026;13.792;2024-02-26T10:05:53;12.20;;;6.13;;
1436;SDS011;712;51.026;13.792;2024-02-26T10:08:20;11.20;;;5.78;;
1436;SDS011;712;51.026;13.792;2024-02-26T10:10:47;12.88;;;6.53;;
1436;SDS011;712;51.026;13.792;2024-02-26T10:13:12;11.80;;;5.88;;
1436;SDS011;712;51.026;13.792;2024-02-26T10:15:37;12.82;;;6.05;;
1436;SDS011;712;51.026;13.792;2024-02-26T10:18:06;11.45;;;6.00;;
1436;SDS011;712;51.026;13.792;2024-02-26T10:20:31;12.73;;;6.28;;
1436;SDS011;712;51.026;13.792;2024-02-26T10:22:57;14.70;;;6.45;;
1436;SDS011;712;51.026;13.792;2024-02-26T10:25:22;12.70;;;6.40;;
1436;SDS011;712;51.026;13.792;2024-02-26T10:27:47;14.43;;;6.20;;
1436;SDS011;712;51.026;13.792;2024-02-26T10:30:16;11.33;;;5.77;;
1436;SDS011;712;51.026;13.792;2024-02-26T10:32:43;13.23;;;6.35;;
1436;SDS011;712;51.026;13.792;2024-02-26T10:35:08;10.20;;;5.50;;
1436;SDS011;712;51.026;13.792;2024-02-26T10:37:33;11.02;;;5.55;;
1436;SDS011;712;51.026;13.792;2024-02-26T10:39:58;10.48;;;5.32;;
1436;SDS011;712;51.026;13.792;2024-02-26T10:42:25;11.75;;;6.15;;
1436;SDS011;712;51.026;13.792;2024-02-26T10:44:50;11.50;;;5.88;;
1436;SDS011;712;51.026;13.792;2024-02-26T10:47:15;14.17;;;6.20;;
1436;SDS011;712;51.026;13.792;2024-02-26T10:49:44;12.70;;;6.40;;
1436;SDS011;712;51.026;13.792;2024-02-26T10:52:10;12.50;;;6.50;;
1436;SDS011;712;51.026;13.792;2024-02-26T10:54:35;12.93;;;5.90;;
1436;SDS011;712;51.026;13.792;2024-02-26T10:57:03;10.82;;;5.90;;
1436;SDS011;712;51.026;13.792;2024-02-26T10:59:29;11.30;;;6.65;;
1436;SDS011;712;51.026;13.792;2024-02-26T11:01:56;10.23;;;5.68;;
1436;SDS011;712;51.026;13.792;2024-02-26T11:04:22;11.55;;;6.32;;
1436;SDS011;712;51.026;13.792;2024-02-26T11:06:48;12.38;;;6.53;;
1436;SDS011;712;51.026;13.792;2024-02-26T11:11:39;10.38;;;5.85;;
1436;SDS011;712;51.026;13.792;2024-02-26T11:14:05;12.18;;;5.85;;
1436;SDS011;712;51.026;13.792;2024-02-26T11:16:31;11.70;;;5.70;;
1436;SDS011;712;51.026;13.792;2024-02-26T11:18:57;11.68;;;5.82;;
1436;SDS011;712;51.026;13.792;2024-02-26T11:21:22;11.85;;;6.10;;
1436;SDS011;712;51.026;13.792;2024-02-26T11:23:53;12.35;;;5.82;;
1436;SDS011;712;51.026;13.792;2024-02-26T11:26:19;11.93;;;5.65;;
1436;SDS011;712;51.026;13.792;2024-02-26T11:28:45;12.13;;;6.05;;
1436;SDS011;712;51.026;13.792;2024-02-26T11:31:10;13.20;;;6.20;;
1436;SDS011;712;51.026;13.792;2024-02-26T11:33:37;11.48;;;5.90;;
1436;SDS011;712;51.026;13.792;2024-02-26T11:36:07;10.77;;;5.77;;
1436;SDS011;712;51.026;13.792;2024-02-26T11:38:32;10.75;;;6.15;;
1436;SDS011;712;51.026;13.792;2024-02-26T11:40:57;12.33;;;6.07;;
1436;SDS011;712;51.026;13.792;2024-02-26T11:44:08;11.03;;;5.53;;
1436;SDS011;712;51.026;13.792;2024-02-26T11:46:24;12.93;;;5.80;;
1436;SDS011;712;51.026;13.792;2024-02-26T11:48:49;10.93;;;5.93;;
1436;SDS011;712;51.026;13.792;2024-02-26T11:51:14;10.98;;;5.15;;
1436;SDS011;712;51.026;13.792;2024-02-26T11:53:45;10.27;;;5.20;;
1436;SDS011;712;51.026;13.792;2024-02-26T11:58:42;11.73;;;5.85;;
1436;SDS011;712;51.026;13.792;2024-02-26T12:03:54;12.10;;;5.55;;
1436;SDS011;712;51.026;13.792;2024-02-26T12:06:19;11.20;;;5.30;;
1436;SDS011;712;51.026;13.792;2024-02-26T12:08:44;10.13;;;5.40;;
1436;SDS011;712;51.026;13.792;2024-02-26T12:11:15;11.23;;;5.72;;
1436;SDS011;712;51.026;13.792;2024-02-26T12:13:41;10.23;;;5.18;;
1436;SDS011;712;51.026;13.792;2024-02-26T12:16:06;11.20;;;5.40;;
1436;SDS011;712;51.026;13.792;2024-02-26T12:18:31;10.47;;;5.30;;
1436;SDS011;712;51.026;13.792;2024-02-26T12:21:00;10.50;;;5.33;;
1436;SDS011;712;51.026;13.792;2024-02-26T12:23:28;9.90;;;5.60;;
1436;SDS011;712;51.026;13.792;2024-02-26T12:25:54;10.90;;;5.83;;
1436;SDS011;712;51.026;13.792;2024-02-26T12:28:23;10.27;;;5.60;;
1436;SDS011;712;51.026;13.792;2024-02-26T12:30:48;9.63;;;5.23;;
1436;SDS011;712;51.026;13.792;2024-02-26T12:33:13;9.90;;;5.45;;
1436;SDS011;712;51.026;13.792;2024-02-26T12:35:38;13.10;;;5.87;;
1436;SDS011;712;51.026;13.792;2024-02-26T12:38:03;10.53;;;5.37;;
1436;SDS011;712;51.026;13.792;2024-02-26T12:40:29;10.70;;;5.27;;
1436;SDS011;712;51.026;13.792;2024-02-26T12:42:54;9.65;;;5.45;;
1436;SDS011;712;51.026;13.792;2024-02-26T12:45:22;9.98;;;5.40;;
1436;SDS011;712;51.026;13.792;2024-02-26T12:47:48;10.17;;;4.90;;
1436;SDS011;712;51.026;13.792;2024-02-26T12:50:15;11.25;;;5.20;;
1436;SDS011;712;51.026;13.792;2024-02-26T12:52:43;9.45;;;4.80;;
1436;SDS011;712;51.026;13.792;2024-02-26T12:55:10;11.30;;;4.75;;
1436;SDS011;712;51.026;13.792;2024-02-26T12:57:36;9.93;;;4.97;;
1436;SDS011;712;51.026;13.792;2024-02-26T13:00:02;9.85;;;4.70;;
1436;SDS011;712;51.026;13.792;2024-02-26T13:02:28;9.15;;;4.85;;
1436;SDS011;712;51.026;13.792;2024-02-26T13:04:54;9.38;;;5.13;;
1436;SDS011;712;51.026;13.792;2024-02-26T13:07:20;11.45;;;5.00;;
1436;SDS011;712;51.026;13.792;2024-02-26T13:09:45;9.77;;;5.00;;
1436;SDS011;712;51.026;13.792;2024-02-26T13:12:11;9.52;;;5.50;;
1436;SDS011;712;51.026;13.792;2024-02-26T13:14:37;8.65;;;5.22;;
1436;SDS011;712;51.026;13.792;2024-02-26T13:17:02;10.50;;;5.57;;
1436;SDS011;712;51.026;13.792;2024-02-26T13:19:27;8.88;;;5.13;;
1436;SDS011;712;51.026;13.792;2024-02-26T13:21:53;9.40;;;4.90;;
1436;SDS011;712;51.026;13.792;2024-02-26T13:24:19;11.68;;;5.68;;
1436;SDS011;712;51.026;13.792;2024-02-26T13:26:44;10.90;;;5.40;;
1436;SDS011;712;51.026;13.792;2024-02-26T13:29:16;9.53;;;5.50;;
1436;SDS011;712;51.026;13.792;2024-02-26T13:31:41;10.48;;;5.35;;
1436;SDS011;712;51.026;13.792;2024-02-26T13:34:06;9.88;;;5.47;;
1436;SDS011;712;51.026;13.792;2024-02-26T13:36:31;10.68;;;6.15;;
1436;SDS011;712;51.026;13.792;2024-02-26T13:38:56;11.10;;;5.50;;
1436;SDS011;712;51.026;13.792;2024-02-26T13:41:22;11.73;;;6.13;;
1436;SDS011;712;51.026;13.792;2024-02-26T13:43:47;8.63;;;5.10;;
1436;SDS011;712;51.026;13.792;2024-02-26T13:46:13;9.90;;;5.80;;
1436;SDS011;712;51.026;13.792;2024-02-26T13:51:05;10.50;;;5.53;;
1436;SDS011;712;51.026;13.792;2024-02-26T13:53:30;10.13;;;5.10;;
1436;SDS011;712;51.026;13.792;2024-02-26T13:55:55;7.82;;;4.43;;
1436;SDS011;712;51.026;13.792;2024-02-26T13:58:20;9.30;;;4.90;;
1436;SDS011;712;51.026;13.792;2024-02-26T14:00:48;10.60;;;5.15;;
1436;SDS011;712;51.026;13.792;2024-02-26T14:03:14;9.68;;;5.05;;
1436;SDS011;712;51.026;13.792;2024-02-26T14:05:39;11.00;;;5.90;;
1436;SDS011;712;51.026;13.792;2024-02-26T14:08:04;9.85;;;5.68;;
1436;SDS011;712;51.026;13.792;2024-02-26T14:10:30;9.93;;;5.25;;
1436;SDS011;712;51.026;13.792;2024-02-26T14:12:56;9.27;;;5.15;;
1436;SDS011;712;51.026;13.792;2024-02-26T14:15:21;11.10;;;5.03;;
1436;SDS011;712;51.026;13.792;2024-02-26T14:17:47;10.60;;;5.53;;
1436;SDS011;712;51.026;13.792;2024-02-26T14:20:18;8.82;;;4.90;;
1436;SDS011;712;51.026;13.792;2024-02-26T14:22:43;9.77;;;4.88;;
1436;SDS011;712;51.026;13.792;2024-02-26T14:25:08;10.65;;;5.32;;
1436;SDS011;712;51.026;13.792;2024-02-26T14:27:34;13.18;;;5.22;;
1436;SDS011;712;51.026;13.792;2024-02-26T14:29:59;11.10;;;4.93;;
1436;SDS011;712;51.026;13.792;2024-02-26T14:32:24;11.03;;;5.00;;
1436;SDS011;712;51.026;13.792;2024-02-26T14:34:49;11.47;;;5.77;;
1436;SDS011;712;51.026;13.792;2024-02-26T14:37:15;9.50;;;5.68;;
1436;SDS011;712;51.026;13.792;2024-02-26T14:39:40;8.50;;;4.97;;
1436;SDS011;712;51.026;13.792;2024-02-26T14:42:05;10.63;;;5.30;;
1436;SDS011;712;51.026;13.792;2024-02-26T14:44:31;8.68;;;4.85;;
1436;SDS011;712;51.026;13.792;2024-02-26T14:46:57;9.10;;;4.57;;
1436;SDS011;712;51.026;13.792;2024-02-26T14:49:23;8.40;;;4.80;;
1436;SDS011;712;51.026;13.792;2024-02-26T14:51:48;9.40;;;4.80;;
1436;SDS011;712;51.026;13.792;2024-02-26T14:54:13;8.32;;;4.60;;
1436;SDS011;712;51.026;13.792;2024-02-26T14:56:38;8.38;;;4.88;;
1436;SDS011;712;51.026;13.792;2024-02-26T14:59:03;9.43;;;4.80;;
1436;SDS011;712;51.026;13.792;2024-02-26T15:01:29;10.65;;;4.82;;
1436;SDS011;712;51.026;13.792;2024-02-26T15:03:54;7.23;;;4.30;;